Time;durP1;ratioP1;P1;durP2;ratioP2;P2;SDS_P1;SDS_P2;PMS_P1;PMS_P2;Temp;Humidity;BMP_temperature;BMP_pressure;BME280_temperature;BME280_humidity;BME280_pressure;Samples;Min_cycle;Max_cycle;Signal;HPM_P1;HPM_P2
2022/02/21 00:00:25;;;;;;;3.30;1.73;;;1.80;99.90;;;;;;4984473;28;20108;-65
2022/02/21 00:02:53;;;;;;;1.75;1.55;;;1.80;99.90;;;;;;4984190;28;20058;-65
2022/02/21 00:05:21;;;;;;;2.80;2.50;;;1.80;99.90;;;;;;4981316;28;20138;-64
2022/02/21 00:07:48;;;;;;;2.63;1.70;;;1.80;99.90;;;;;;4993021;28;20057;-66
2022/02/21 00:10:20;;;;;;;3.83;1.90;;;1.80;99.90;;;;;;5003362;28;20574;-63
2022/02/21 00:12:47;;;;;;;1.67;1.58;;;1.80;99.90;;;;;;5002365;28;20081;-63
2022/02/21 00:15:17;;;;;;;3.50;2.00;;;1.90;99.90;;;;;;5003174;28;20547;-64
2022/02/21 00:17:45;;;;;;;2.03;1.60;;;1.90;99.90;;;;;;4998177;28;20129;-63
2022/02/21 00:20:12;;;;;;;2.15;1.42;;;1.90;99.90;;;;;;4984529;28;20393;-63
2022/02/21 00:22:39;;;;;;;1.30;1.20;;;1.90;99.90;;;;;;4983497;28;20132;-63
2022/02/21 00:25:07;;;;;;;2.22;1.60;;;1.90;99.90;;;;;;4985281;28;20062;-63
2022/02/21 00:27:34;;;;;;;2.25;1.58;;;1.90;99.90;;;;;;5000905;28;20136;-63
2022/02/21 00:30:01;;;;;;;3.33;1.60;;;1.90;99.90;;;;;;5003756;28;20050;-64
2022/02/21 00:32:28;;;;;;;2.55;1.52;;;1.90;99.90;;;;;;5000632;28;20136;-63
2022/02/21 00:34:55;;;;;;;3.60;1.60;;;1.90;99.90;;;;;;5004151;28;20500;-63
2022/02/21 00:37:22;;;;;;;3.35;1.30;;;1.90;99.90;;;;;;4999947;28;20074;-63
2022/02/21 00:39:49;;;;;;;1.50;0.82;;;2.00;99.90;;;;;;5005054;28;20062;-63
2022/02/21 00:42:21;;;;;;;3.17;1.02;;;2.00;99.90;;;;;;5001945;28;20543;-63
2022/02/21 00:44:49;;;;;;;2.70;1.17;;;2.00;99.90;;;;;;5003864;28;20145;-63
2022/02/21 00:47:16;;;;;;;1.88;1.02;;;1.90;99.90;;;;;;5000300;28;20185;-63
2022/02/21 00:49:43;;;;;;;2.05;1.00;;;1.90;99.90;;;;;;5003481;28;20133;-63
2022/02/21 00:52:09;;;;;;;0.98;0.70;;;1.90;99.90;;;;;;5002576;28;20081;-63
2022/02/21 00:54:36;;;;;;;0.98;0.77;;;1.90;99.90;;;;;;5003714;28;20131;-63
2022/02/21 00:57:04;;;;;;;2.70;0.85;;;1.90;99.90;;;;;;5003085;28;20116;-64
2022/02/21 00:59:30;;;;;;;1.50;1.00;;;1.90;99.90;;;;;;5000561;28;20085;-66
2022/02/21 01:01:59;;;;;;;1.20;1.05;;;2.00;99.90;;;;;;5002633;28;20049;-65
2022/02/21 01:04:26;;;;;;;1.65;0.70;;;2.00;99.90;;;;;;4996721;28;20164;-64
2022/02/21 01:06:53;;;;;;;1.45;1.10;;;2.00;99.90;;;;;;5003870;28;20124;-65
2022/02/21 01:09:19;;;;;;;1.48;0.90;;;2.00;99.90;;;;;;4983413;28;20077;-64
2022/02/21 01:11:46;;;;;;;0.95;0.85;;;2.10;99.90;;;;;;5003145;28;20089;-63
2022/02/21 01:14:13;;;;;;;2.72;1.10;;;2.10;99.90;;;;;;5002330;28;20169;-63
2022/02/21 01:16:40;;;;;;;2.10;1.30;;;2.10;99.90;;;;;;5003180;28;20054;-64
2022/02/21 01:19:07;;;;;;;1.90;1.17;;;2.20;99.90;;;;;;5001522;28;20081;-65
2022/02/21 01:21:34;;;;;;;1.40;1.08;;;2.20;99.90;;;;;;5001443;28;20108;-63
2022/02/21 01:24:01;;;;;;;1.60;1.13;;;2.20;99.90;;;;;;5003050;28;20116;-63
2022/02/21 01:26:28;;;;;;;0.93;0.68;;;2.20;99.90;;;;;;5000764;28;20468;-63
2022/02/21 01:28:55;;;;;;;1.83;1.35;;;2.30;99.90;;;;;;5003062;28;20753;-64
2022/02/21 01:31:22;;;;;;;1.23;1.13;;;2.30;99.90;;;;;;5002815;28;20160;-64
2022/02/21 01:33:49;;;;;;;2.13;1.02;;;2.30;99.90;;;;;;5006007;28;20077;-64
2022/02/21 01:36:16;;;;;;;2.30;1.15;;;2.30;99.90;;;;;;5005964;28;20050;-63
2022/02/21 01:38:43;;;;;;;3.72;1.67;;;2.30;99.90;;;;;;5007061;28;20421;-64
2022/02/21 01:41:10;;;;;;;1.83;1.50;;;2.40;99.90;;;;;;5004638;28;20502;-65
2022/02/21 01:43:37;;;;;;;2.50;1.80;;;2.50;99.90;;;;;;4888067;28;20163;-64
2022/02/21 01:46:04;;;;;;;2.75;1.70;;;2.50;99.90;;;;;;667863;28;10002079;-64
2022/02/21 01:48:31;;;;;;;2.20;1.92;;;2.50;99.90;;;;;;4991098;28;20156;-64
2022/02/21 01:50:58;;;;;;;1.45;1.27;;;2.50;99.90;;;;;;4986555;28;20528;-63
2022/02/21 01:53:25;;;;;;;1.70;1.50;;;2.60;99.90;;;;;;4985119;28;20065;-64
2022/02/21 01:55:53;;;;;;;2.35;1.88;;;2.70;99.90;;;;;;4984976;28;20109;-63
2022/02/21 01:58:20;;;;;;;2.83;1.52;;;2.70;99.90;;;;;;4986520;28;20065;-70
2022/02/21 02:00:47;;;;;;;1.23;1.13;;;2.80;99.90;;;;;;4986259;28;20141;-65
2022/02/21 02:03:16;;;;;;;2.03;1.38;;;2.80;99.90;;;;;;4982111;28;20104;-66
2022/02/21 02:05:44;;;;;;;1.63;1.50;;;2.80;99.90;;;;;;4987411;28;20126;-63
2022/02/21 02:08:12;;;;;;;1.95;1.17;;;2.90;99.90;;;;;;4985778;28;20125;-64
2022/02/21 02:10:39;;;;;;;3.70;1.27;;;2.90;99.90;;;;;;4986891;28;20101;-64
2022/02/21 02:13:06;;;;;;;0.85;0.80;;;3.00;99.90;;;;;;4986402;28;20141;-67
2022/02/21 02:15:33;;;;;;;1.40;1.00;;;3.00;99.90;;;;;;5004837;28;20045;-63
2022/02/21 02:18:01;;;;;;;3.33;1.08;;;3.00;99.90;;;;;;5006714;28;20061;-64
2022/02/21 02:20:28;;;;;;;2.58;0.93;;;3.10;99.90;;;;;;5003709;28;20155;-63
2022/02/21 02:22:55;;;;;;;1.05;0.90;;;3.10;99.90;;;;;;5006736;28;20057;-63
2022/02/21 02:25:22;;;;;;;1.23;0.80;;;3.10;99.90;;;;;;5001335;28;20049;-64
2022/02/21 02:27:49;;;;;;;2.75;0.90;;;3.20;99.90;;;;;;4997881;28;20092;-65
2022/02/21 02:30:16;;;;;;;1.02;0.52;;;3.20;99.90;;;;;;5002827;28;20038;-65
2022/02/21 02:32:48;;;;;;;1.35;0.68;;;3.20;99.90;;;;;;5005500;28;20054;-63
2022/02/21 02:35:22;;;;;;;1.20;0.70;;;3.30;99.90;;;;;;5002452;28;20077;-63
2022/02/21 02:37:49;;;;;;;0.80;0.60;;;3.40;99.90;;;;;;5005207;28;20811;-63
2022/02/21 02:40:16;;;;;;;1.50;0.68;;;3.40;99.90;;;;;;4994864;28;20137;-63
2022/02/21 02:42:43;;;;;;;0.50;0.20;;;3.50;99.90;;;;;;4998077;28;20131;-63
2022/02/21 02:45:10;;;;;;;0.73;0.52;;;3.50;99.90;;;;;;5002015;28;20088;-66
2022/02/21 02:47:37;;;;;;;0.30;0.30;;;3.50;99.90;;;;;;5005386;28;20070;-64
2022/02/21 02:50:05;;;;;;;0.38;0.32;;;3.60;99.90;;;;;;5003612;28;20081;-63
2022/02/21 02:52:32;;;;;;;0.60;0.30;;;3.60;99.90;;;;;;4993009;28;20767;-67
2022/02/21 02:54:59;;;;;;;0.40;0.25;;;3.70;99.90;;;;;;4998914;28;20084;-63
2022/02/21 02:57:26;;;;;;;0.88;0.60;;;3.60;99.90;;;;;;5003398;28;20168;-63
2022/02/21 02:59:53;;;;;;;1.75;0.40;;;3.70;99.90;;;;;;5004598;28;20061;-64
2022/02/21 03:02:20;;;;;;;0.38;0.32;;;3.70;99.90;;;;;;5003888;28;20445;-64
2022/02/21 03:04:47;;;;;;;0.52;0.30;;;3.70;99.90;;;;;;5001283;28;20131;-64
2022/02/21 03:07:14;;;;;;;1.63;0.50;;;3.70;99.90;;;;;;5001718;28;20082;-64
2022/02/21 03:09:41;;;;;;;0.68;0.32;;;3.70;99.90;;;;;;5004325;28;20069;-64
2022/02/21 03:12:08;;;;;;;0.68;0.40;;;3.80;99.90;;;;;;5001106;28;20139;-64
2022/02/21 03:14:35;;;;;;;0.90;0.50;;;3.80;99.90;;;;;;5002501;28;20058;-63
2022/02/21 03:17:02;;;;;;;0.60;0.38;;;3.80;99.90;;;;;;5002857;28;20066;-63
2022/02/21 03:19:29;;;;;;;0.80;0.60;;;3.80;99.90;;;;;;5002639;28;20127;-63
2022/02/21 03:21:56;;;;;;;0.65;0.40;;;3.90;99.90;;;;;;5002692;28;20061;-66
2022/02/21 03:24:23;;;;;;;0.55;0.45;;;4.00;99.90;;;;;;5002156;28;20133;-63
2022/02/21 03:26:50;;;;;;;0.47;0.47;;;4.00;99.90;;;;;;4971010;28;1088528;-64
2022/02/21 03:29:17;;;;;;;0.45;0.43;;;4.00;99.90;;;;;;4999336;28;20050;-64
2022/02/21 03:31:44;;;;;;;0.98;0.60;;;4.00;99.90;;;;;;5005421;28;20852;-63
2022/02/21 03:34:11;;;;;;;2.58;0.50;;;4.10;99.90;;;;;;5002365;28;20409;-69
2022/02/21 03:36:38;;;;;;;0.65;0.40;;;4.10;99.90;;;;;;5004202;28;20451;-64
2022/02/21 03:39:05;;;;;;;0.82;0.82;;;4.20;99.90;;;;;;5003832;28;20408;-64
2022/02/21 03:41:34;;;;;;;0.73;0.70;;;4.20;99.90;;;;;;5004142;28;20186;-63
2022/02/21 03:44:05;;;;;;;0.60;0.40;;;4.20;99.90;;;;;;4624780;28;10001150;-64
2022/02/21 03:46:36;;;;;;;0.90;0.68;;;4.30;99.90;;;;;;1372274;28;10002041;-64
2022/02/21 03:49:07;;;;;;;0.68;0.68;;;4.30;99.90;;;;;;4983009;28;20049;-64
2022/02/21 03:51:38;;;;;;;0.63;0.63;;;4.30;99.90;;;;;;4986383;28;20049;-63
2022/02/21 03:54:05;;;;;;;0.82;0.70;;;4.40;99.90;;;;;;5004516;28;20053;-64
2022/02/21 03:56:33;;;;;;;1.17;0.88;;;4.40;99.90;;;;;;5004153;28;20159;-64
2022/02/21 03:58:59;;;;;;;0.82;0.77;;;4.50;99.90;;;;;;5004665;28;20143;-64
2022/02/21 04:01:26;;;;;;;1.30;0.93;;;4.50;99.90;;;;;;5002330;28;20384;-64
2022/02/21 04:03:53;;;;;;;0.60;0.57;;;4.50;99.90;;;;;;5003337;28;20161;-66
2022/02/21 04:06:20;;;;;;;0.80;0.68;;;4.60;99.90;;;;;;5003105;28;20045;-64
2022/02/21 04:08:47;;;;;;;0.82;0.63;;;4.60;99.90;;;;;;5004694;28;20054;-64
2022/02/21 04:11:14;;;;;;;0.40;0.40;;;4.70;99.90;;;;;;5001635;28;20663;-66
2022/02/21 04:13:41;;;;;;;0.85;0.50;;;4.90;99.90;;;;;;5003421;28;20092;-63
2022/02/21 04:16:08;;;;;;;0.60;0.60;;;4.90;99.90;;;;;;5003462;28;20431;-64
2022/02/21 04:18:35;;;;;;;1.00;0.80;;;5.00;99.90;;;;;;5002275;28;20507;-65
2022/02/21 04:21:01;;;;;;;0.88;0.68;;;5.00;99.90;;;;;;5000440;28;20046;-64
2022/02/21 04:23:28;;;;;;;0.73;0.63;;;5.00;99.90;;;;;;5002719;28;20146;-66
2022/02/21 04:25:55;;;;;;;2.35;0.68;;;5.10;99.90;;;;;;5002344;28;20045;-64
2022/02/21 04:28:22;;;;;;;0.45;0.45;;;5.10;99.90;;;;;;5004878;28;20078;-63
2022/02/21 04:30:49;;;;;;;2.40;1.85;;;5.20;99.90;;;;;;4987617;28;20105;-63
2022/02/21 04:33:16;;;;;;;0.75;0.60;;;5.30;99.90;;;;;;5000354;28;20312;-63
2022/02/21 04:35:43;;;;;;;1.27;0.98;;;5.30;99.90;;;;;;5002234;28;20149;-64
2022/02/21 04:38:12;;;;;;;3.20;0.47;;;5.30;99.90;;;;;;4998184;28;20116;-64
2022/02/21 04:40:39;;;;;;;0.75;0.70;;;5.30;99.90;;;;;;5003908;28;20581;-64
2022/02/21 04:43:06;;;;;;;2.60;2.35;;;5.30;99.90;;;;;;5002406;28;20180;-63
2022/02/21 04:45:32;;;;;;;0.70;0.70;;;5.30;99.90;;;;;;5000932;28;20111;-64
2022/02/21 04:47:59;;;;;;;2.17;0.38;;;5.30;99.90;;;;;;5003140;28;20060;-65
2022/02/21 04:50:26;;;;;;;0.85;0.50;;;5.30;99.90;;;;;;5002240;28;20057;-63
2022/02/21 04:52:53;;;;;;;1.27;0.30;;;5.40;99.90;;;;;;4988137;28;20217;-64
2022/02/21 04:55:20;;;;;;;1.02;1.02;;;5.40;99.90;;;;;;4980446;28;20112;-64
2022/02/21 04:57:47;;;;;;;0.85;0.85;;;5.40;99.90;;;;;;4983513;28;20057;-64
2022/02/21 05:00:15;;;;;;;1.38;0.43;;;5.50;99.90;;;;;;4982725;28;20579;-64
2022/02/21 05:02:42;;;;;;;0.95;0.63;;;5.50;99.90;;;;;;4983124;28;20133;-64
2022/02/21 05:05:11;;;;;;;1.73;0.82;;;5.50;99.90;;;;;;4979963;28;20074;-64
2022/02/21 05:07:39;;;;;;;0.43;0.40;;;5.50;99.90;;;;;;4982751;28;20042;-64
2022/02/21 05:10:07;;;;;;;1.17;0.60;;;5.60;99.90;;;;;;4982058;28;20145;-64
2022/02/21 05:12:34;;;;;;;2.55;0.38;;;5.60;99.90;;;;;;4982212;28;20167;-65
2022/02/21 05:15:02;;;;;;;0.98;0.38;;;5.60;99.90;;;;;;4984707;28;20158;-63
2022/02/21 05:17:29;;;;;;;0.60;0.47;;;5.60;99.90;;;;;;4979834;28;20156;-64
2022/02/21 05:19:56;;;;;;;0.82;0.55;;;5.60;99.90;;;;;;4982854;28;20132;-64
2022/02/21 05:22:29;;;;;;;0.32;0.30;;;5.60;99.90;;;;;;4979728;28;20046;-64
2022/02/21 05:24:55;;;;;;;0.90;0.80;;;5.60;99.90;;;;;;4983871;28;20121;-64
2022/02/21 05:27:23;;;;;;;0.52;0.52;;;5.60;99.90;;;;;;4981314;28;20050;-67
2022/02/21 05:29:50;;;;;;;1.55;0.98;;;5.70;99.90;;;;;;4984415;28;20080;-64
2022/02/21 05:32:16;;;;;;;3.17;2.05;;;5.70;99.90;;;;;;4978362;28;20485;-70
2022/02/21 05:34:43;;;;;;;1.88;1.67;;;5.70;99.90;;;;;;4984054;28;20122;-66
2022/02/21 05:37:10;;;;;;;2.67;1.77;;;5.70;99.90;;;;;;4980555;28;20163;-64
2022/02/21 05:39:37;;;;;;;3.00;1.60;;;5.70;99.90;;;;;;4982844;28;20071;-67
2022/02/21 05:42:04;;;;;;;2.65;1.25;;;5.60;99.90;;;;;;4983525;28;20136;-65
2022/02/21 05:44:31;;;;;;;1.50;1.27;;;5.60;99.90;;;;;;4982684;28;20595;-64
2022/02/21 05:46:58;;;;;;;1.95;1.73;;;5.60;99.90;;;;;;4982629;28;20047;-66
2022/02/21 05:49:26;;;;;;;4.30;1.55;;;5.60;99.90;;;;;;4980880;28;20046;-65
2022/02/21 05:51:53;;;;;;;3.85;1.88;;;5.60;99.90;;;;;;4984187;28;20445;-66
2022/02/21 05:54:20;;;;;;;6.82;2.45;;;5.60;99.90;;;;;;4982812;28;20077;-66
2022/02/21 05:56:47;;;;;;;5.45;2.78;;;5.60;99.90;;;;;;4983308;28;20587;-67
2022/02/21 05:59:14;;;;;;;4.10;2.13;;;5.60;99.90;;;;;;4981090;28;20489;-65
2022/02/21 06:01:41;;;;;;;3.80;2.05;;;5.60;99.90;;;;;;4982839;28;20050;-67
2022/02/21 06:04:08;;;;;;;6.95;2.30;;;5.60;99.90;;;;;;4982118;28;20153;-68
2022/02/21 06:06:35;;;;;;;4.22;2.55;;;5.60;99.90;;;;;;4983679;28;20054;-65
2022/02/21 06:09:03;;;;;;;7.88;4.05;;;5.60;99.90;;;;;;4982238;28;20365;-68
2022/02/21 06:11:31;;;;;;;7.40;3.05;;;5.70;99.90;;;;;;4982092;28;20555;-65
2022/02/21 06:13:58;;;;;;;3.45;2.67;;;5.60;99.90;;;;;;4982497;28;20066;-64
2022/02/21 06:16:25;;;;;;;7.10;2.42;;;5.60;99.90;;;;;;4986941;28;20132;-67
2022/02/21 06:18:52;;;;;;;4.03;3.63;;;5.60;99.90;;;;;;4985297;28;20420;-65
2022/02/21 06:21:19;;;;;;;6.57;2.90;;;5.60;99.90;;;;;;4982783;28;20053;-64
2022/02/21 06:23:46;;;;;;;3.67;2.55;;;5.60;99.90;;;;;;4984945;28;20153;-67
2022/02/21 06:26:14;;;;;;;6.70;3.45;;;5.60;99.90;;;;;;4985311;28;20042;-66
2022/02/21 06:28:40;;;;;;;7.07;3.15;;;5.60;99.90;;;;;;4985594;28;20120;-65
2022/02/21 06:31:09;;;;;;;8.85;3.30;;;5.60;99.90;;;;;;4984687;28;20141;-67
2022/02/21 06:33:37;;;;;;;13.05;3.15;;;5.60;99.90;;;;;;4984192;28;20555;-64
2022/02/21 06:36:05;;;;;;;6.93;3.80;;;5.60;99.90;;;;;;4983715;28;20548;-65
2022/02/21 06:38:32;;;;;;;7.97;3.63;;;5.60;99.90;;;;;;4986116;28;20042;-66
2022/02/21 06:40:59;;;;;;;7.32;3.28;;;5.60;99.90;;;;;;4985095;28;21574;-64
2022/02/21 06:43:26;;;;;;;11.95;3.40;;;5.60;99.90;;;;;;4982971;28;20137;-64
2022/02/21 06:45:53;;;;;;;6.78;3.22;;;5.60;99.90;;;;;;4984206;28;20117;-65
2022/02/21 06:48:22;;;;;;;9.55;3.47;;;5.60;99.90;;;;;;4983250;28;20047;-66
2022/02/21 06:50:49;;;;;;;6.60;2.42;;;5.60;99.90;;;;;;4981404;28;20508;-64
2022/02/21 06:53:16;;;;;;;7.32;2.13;;;5.60;99.90;;;;;;4982695;28;20058;-66
2022/02/21 06:55:43;;;;;;;9.02;3.00;;;5.50;99.90;;;;;;4986189;28;20469;-65
2022/02/21 06:58:13;;;;;;;7.22;3.00;;;5.60;99.90;;;;;;4985839;28;20212;-66
2022/02/21 07:00:40;;;;;;;7.07;2.92;;;5.50;99.90;;;;;;4984589;28;20050;-66
2022/02/21 07:03:07;;;;;;;13.45;3.45;;;5.50;99.90;;;;;;4983500;28;20474;-68
2022/02/21 07:05:35;;;;;;;4.55;2.25;;;5.50;99.90;;;;;;4984040;28;20092;-65
2022/02/21 07:08:02;;;;;;;11.18;3.13;;;5.50;99.90;;;;;;4983777;28;20046;-65
2022/02/21 07:10:29;;;;;;;8.80;2.10;;;5.50;99.90;;;;;;4985292;28;20495;-65
2022/02/21 07:12:55;;;;;;;9.43;3.35;;;5.50;99.90;;;;;;4985656;28;20082;-67
2022/02/21 07:15:23;;;;;;;6.25;3.40;;;5.50;99.90;;;;;;4981242;28;20047;-65
2022/02/21 07:17:50;;;;;;;9.23;1.65;;;5.50;99.90;;;;;;4983020;28;20080;-66
2022/02/21 07:20:17;;;;;;;4.43;2.20;;;5.50;99.90;;;;;;4984083;28;20050;-65
2022/02/21 07:22:45;;;;;;;6.20;2.38;;;5.40;99.90;;;;;;4985675;28;20098;-66
2022/02/21 07:25:15;;;;;;;6.60;2.17;;;5.40;99.90;;;;;;4981581;28;20054;-67
2022/02/21 07:27:46;;;;;;;9.47;3.00;;;5.50;99.90;;;;;;4980305;28;20124;-66
2022/02/21 07:30:14;;;;;;;8.50;3.35;;;5.40;99.90;;;;;;4981671;28;20077;-68
2022/02/21 07:32:42;;;;;;;7.43;2.15;;;5.40;99.90;;;;;;4984141;28;20224;-66
2022/02/21 07:35:09;;;;;;;5.03;1.88;;;5.40;99.90;;;;;;4983129;28;20159;-68
2022/02/21 07:37:39;;;;;;;8.73;2.25;;;5.40;99.90;;;;;;4981891;28;20073;-65
2022/02/21 07:40:08;;;;;;;12.52;4.88;;;5.40;99.90;;;;;;4983788;28;20046;-66
2022/02/21 07:42:35;;;;;;;1.98;1.38;;;5.40;99.90;;;;;;4982485;28;20085;-69
2022/02/21 07:45:02;;;;;;;8.63;1.90;;;5.40;99.90;;;;;;4962035;28;20054;-65
2022/02/21 07:47:29;;;;;;;9.77;2.22;;;5.40;99.90;;;;;;4915633;28;21853;-66
2022/02/21 07:49:56;;;;;;;5.07;1.90;;;5.40;99.90;;;;;;973546;28;10002290;-66
2022/02/21 07:52:25;;;;;;;6.25;2.53;;;5.40;99.90;;;;;;5002694;28;20413;-68
2022/02/21 07:54:52;;;;;;;7.15;1.75;;;5.40;99.90;;;;;;5003586;28;20080;-65
2022/02/21 07:57:19;;;;;;;6.22;1.70;;;5.40;99.90;;;;;;5001381;28;20057;-66
2022/02/21 07:59:46;;;;;;;9.80;3.33;;;5.40;99.90;;;;;;5006169;28;20089;-66
2022/02/21 08:02:13;;;;;;;4.25;1.58;;;5.30;99.90;;;;;;4998996;28;20149;-66
2022/02/21 08:04:40;;;;;;;4.85;2.35;;;5.30;99.90;;;;;;5003188;28;20085;-67
2022/02/21 08:07:07;;;;;;;9.07;1.90;;;5.30;99.90;;;;;;5003043;28;20073;-66
2022/02/21 08:09:34;;;;;;;4.47;1.85;;;5.30;99.90;;;;;;4999803;28;20049;-65
2022/02/21 08:12:07;;;;;;;16.80;2.75;;;5.30;99.90;;;;;;5003108;28;20042;-68
2022/02/21 08:14:34;;;;;;;9.52;2.03;;;5.30;99.90;;;;;;5003370;28;20046;-65
2022/02/21 08:17:02;;;;;;;9.38;1.75;;;5.30;99.90;;;;;;5002962;28;20088;-67
2022/02/21 08:19:29;;;;;;;2.83;1.35;;;5.30;99.90;;;;;;4999377;28;20057;-66
2022/02/21 08:21:56;;;;;;;7.50;1.30;;;5.40;99.90;;;;;;5002503;28;20445;-66
2022/02/21 08:24:25;;;;;;;4.82;1.40;;;5.40;99.90;;;;;;5002327;28;20049;-67
2022/02/21 08:26:52;;;;;;;3.42;0.98;;;5.40;99.90;;;;;;4995232;28;20501;-66
2022/02/21 08:29:19;;;;;;;8.27;1.48;;;5.50;99.90;;;;;;5000646;28;20081;-65
2022/02/21 08:31:47;;;;;;;6.10;1.95;;;5.60;99.90;;;;;;5002228;28;20077;-66
2022/02/21 08:34:19;;;;;;;4.70;0.95;;;5.60;99.90;;;;;;5000776;28;20168;-64
2022/02/21 08:36:46;;;;;;;3.15;1.30;;;5.60;99.90;;;;;;5002768;28;20046;-63
2022/02/21 08:39:13;;;;;;;4.28;1.20;;;5.60;99.90;;;;;;4980828;28;20125;-68
2022/02/21 08:41:40;;;;;;;4.05;0.98;;;5.60;99.90;;;;;;4982183;28;20457;-65
2022/02/21 08:44:06;;;;;;;3.63;0.68;;;5.70;99.90;;;;;;4987791;28;20054;-65
2022/02/21 08:46:33;;;;;;;3.40;1.25;;;5.70;99.90;;;;;;5001751;28;20050;-66
2022/02/21 08:49:05;;;;;;;5.82;1.55;;;5.70;99.90;;;;;;5001582;28;20050;-64
2022/02/21 08:51:33;;;;;;;2.90;1.25;;;5.70;99.90;;;;;;5000647;28;20058;-67
2022/02/21 08:54:00;;;;;;;4.18;1.08;;;5.70;99.90;;;;;;5002794;28;20460;-68
2022/02/21 08:56:32;;;;;;;4.95;1.00;;;5.60;99.90;;;;;;5001939;28;20049;-66
2022/02/21 08:58:59;;;;;;;6.38;1.45;;;5.70;99.90;;;;;;5002145;28;20084;-65
2022/02/21 09:01:26;;;;;;;3.85;0.77;;;5.70;99.90;;;;;;4999983;28;20054;-68
2022/02/21 09:03:53;;;;;;;6.20;2.65;;;5.70;99.90;;;;;;5002568;28;20143;-65
2022/02/21 09:06:20;;;;;;;4.63;1.30;;;5.60;99.90;;;;;;5003898;28;20049;-65
2022/02/21 09:08:47;;;;;;;3.50;1.27;;;5.60;99.90;;;;;;5001592;28;20080;-67
2022/02/21 09:11:14;;;;;;;4.70;1.60;;;5.60;99.90;;;;;;5001260;28;20084;-64
2022/02/21 09:13:41;;;;;;;3.30;1.27;;;5.60;99.90;;;;;;5001904;28;20134;-65
2022/02/21 09:16:08;;;;;;;5.97;1.17;;;5.60;99.90;;;;;;5003842;28;20514;-69
2022/02/21 09:18:35;;;;;;;8.50;2.50;;;5.60;99.90;;;;;;5002496;28;20918;-65
2022/02/21 09:21:02;;;;;;;6.75;1.48;;;5.50;99.90;;;;;;5002820;28;20129;-66
2022/02/21 09:23:29;;;;;;;9.52;2.33;;;5.50;99.90;;;;;;5000372;28;20146;-68
2022/02/21 09:25:56;;;;;;;9.63;1.70;;;5.40;99.90;;;;;;4998934;28;20492;-68
2022/02/21 09:28:23;;;;;;;4.50;1.60;;;5.40;99.90;;;;;;4996309;28;20134;-65
2022/02/21 09:30:53;;;;;;;2.75;1.48;;;5.40;99.90;;;;;;5015136;28;20051;-67
2022/02/21 09:33:23;;;;;;;14.27;2.65;;;5.40;99.90;;;;;;4999383;28;20073;-65
2022/02/21 09:35:50;;;;;;;6.88;1.52;;;5.40;99.90;;;;;;5002265;28;20050;-66
2022/02/21 09:38:18;;;;;;;9.27;1.67;;;5.30;99.90;;;;;;4997781;28;20515;-64
2022/02/21 09:40:50;;;;;;;6.55;1.48;;;5.20;99.90;;;;;;5000943;28;20141;-64
2022/02/21 09:43:30;;;;;;;7.78;2.00;;;5.20;99.90;;;;;;4982134;28;20065;-68
2022/02/21 09:46:00;;;;;;;8.07;1.88;;;5.20;99.90;;;;;;4980522;28;20074;-65
2022/02/21 09:48:28;;;;;;;5.85;2.58;;;5.20;99.90;;;;;;4976986;28;20050;-66
2022/02/21 09:51:00;;;;;;;5.18;2.33;;;5.20;99.90;;;;;;4983258;28;20529;-65
2022/02/21 09:53:28;;;;;;;7.07;1.90;;;5.20;99.90;;;;;;4982665;28;20149;-65
2022/02/21 09:55:55;;;;;;;10.15;2.65;;;5.20;99.90;;;;;;4983843;28;20420;-65
2022/02/21 09:58:23;;;;;;;6.00;1.63;;;5.20;99.90;;;;;;4982722;28;20116;-66
2022/02/21 10:00:52;;;;;;;3.22;2.08;;;5.30;99.90;;;;;;4981485;28;20539;-65
2022/02/21 10:03:37;;;;;;;6.97;2.13;;;5.30;99.90;;;;;;4984561;28;20046;-66
2022/02/21 10:06:19;;;;;;;11.40;1.85;;;5.30;99.90;;;;;;4986073;28;20057;-65
2022/02/21 10:09:07;;;;;;;3.03;0.93;;;5.40;99.90;;;;;;4983240;28;20077;-65
2022/02/21 10:11:36;;;;;;;5.45;2.28;;;5.40;99.90;;;;;;5004608;28;20507;-66
2022/02/21 10:14:07;;;;;;;10.82;1.58;;;5.40;99.90;;;;;;5003809;28;20149;-73
2022/02/21 10:16:44;;;;;;;17.27;1.73;;;5.40;99.90;;;;;;5005388;28;20050;-66
2022/02/21 10:19:25;;;;;;;7.20;1.38;;;5.30;99.90;;;;;;5001610;28;20518;-68
2022/02/21 10:22:01;;;;;;;4.43;1.27;;;5.40;99.90;;;;;;5006030;28;20471;-66
2022/02/21 10:24:40;;;;;;;3.60;0.80;;;5.40;99.90;;;;;;5004629;28;20038;-70
2022/02/21 10:27:10;;;;;;;9.85;1.15;;;5.40;99.90;;;;;;5005202;28;20054;-69
2022/02/21 10:30:00;;;;;;;6.78;0.75;;;5.40;99.90;;;;;;5001400;28;20070;-65
2022/02/21 10:32:50;;;;;;;5.05;1.98;;;5.40;99.90;;;;;;5003306;28;20060;-65
2022/02/21 10:35:30;;;;;;;2.35;1.67;;;5.40;99.90;;;;;;5001496;28;20057;-66
2022/02/21 10:38:00;;;;;;;4.18;3.10;;;5.40;99.90;;;;;;5005361;28;20046;-67
2022/02/21 10:40:30;;;;;;;5.47;2.72;;;5.40;99.90;;;;;;5004081;28;20053;-66
2022/02/21 10:43:04;;;;;;;3.80;1.95;;;5.40;99.90;;;;;;5005296;28;20057;-67
2022/02/21 10:45:31;;;;;;;2.72;1.27;;;5.30;99.90;;;;;;5001315;28;20053;-67
2022/02/21 10:48:06;;;;;;;1.52;1.08;;;5.30;99.90;;;;;;5005654;28;20453;-65
2022/02/21 10:50:53;;;;;;;4.80;0.60;;;5.30;99.90;;;;;;2356783;28;10023385;-68
2022/02/21 10:53:23;;;;;;;7.78;2.88;;;5.30;99.90;;;;;;3605582;28;10001247;-65
2022/02/21 10:55:52;;;;;;;6.00;1.23;;;5.20;99.90;;;;;;4984914;28;20469;-66
2022/02/21 10:58:19;;;;;;;3.92;1.13;;;5.20;99.90;;;;;;4985820;28;20093;-65
2022/02/21 11:00:49;;;;;;;2.50;0.70;;;5.20;99.90;;;;;;4984417;28;20137;-66
2022/02/21 11:03:19;;;;;;;2.17;0.60;;;5.10;99.90;;;;;;4983777;28;20373;-65
2022/02/21 11:05:47;;;;;;;1.48;0.40;;;5.00;99.90;;;;;;4982520;28;20074;-67
2022/02/21 11:08:19;;;;;;;1.38;0.50;;;4.90;99.90;;;;;;4983091;28;20046;-66
2022/02/21 11:10:55;;;;;;;6.13;1.02;;;4.90;99.90;;;;;;4982853;28;20073;-69
2022/02/21 11:13:22;;;;;;;3.03;0.95;;;4.90;99.90;;;;;;4980590;28;20133;-65
2022/02/21 11:15:49;;;;;;;1.90;0.70;;;4.80;99.90;;;;;;4983815;28;20050;-66
2022/02/21 11:18:17;;;;;;;6.15;1.85;;;4.80;99.90;;;;;;4981666;28;20122;-65
2022/02/21 11:20:45;;;;;;;5.80;0.85;;;4.80;99.90;;;;;;4984520;28;20101;-65
2022/02/21 11:23:12;;;;;;;4.20;0.73;;;4.80;99.90;;;;;;4982280;28;20046;-68
2022/02/21 11:26:13;;;;;;;3.22;1.10;;;4.80;99.90;;;;;;4982301;28;20038;-65
2022/02/21 11:28:51;;;;;;;8.23;1.10;;;4.80;99.90;;;;;;4983062;28;20142;-66
2022/02/21 11:31:32;;;;;;;2.38;1.35;;;4.80;99.90;;;;;;4982944;28;20080;-65
2022/02/21 11:34:09;;;;;;;2.50;1.10;;;4.80;99.90;;;;;;4978911;28;20125;-66
2022/02/21 11:36:39;;;;;;;2.80;1.13;;;4.80;99.90;;;;;;4985364;28;20057;-67
2022/02/21 11:39:24;;;;;;;1.15;0.77;;;4.80;99.90;;;;;;4987290;28;20149;-66
2022/02/21 11:42:19;;;;;;;0.77;0.60;;;4.90;99.90;;;;;;5005530;28;20049;-66
2022/02/21 11:45:00;;;;;;;3.45;0.50;;;4.80;99.90;;;;;;3320536;28;10023151;-66
2022/02/21 11:47:32;;;;;;;3.28;0.70;;;4.80;99.90;;;;;;3268973;28;10001843;-67
2022/02/21 11:49:59;;;;;;;1.80;0.43;;;4.70;99.90;;;;;;5003158;28;20439;-68
2022/02/21 11:52:29;;;;;;;7.32;1.02;;;4.60;99.90;;;;;;4993370;28;20142;-65
2022/02/21 11:54:56;;;;;;;3.15;0.47;;;4.60;99.90;;;;;;4981732;28;20054;-65
2022/02/21 11:57:49;;;;;;;1.25;0.50;;;4.60;99.90;;;;;;4983057;28;20105;-66
2022/02/21 12:00:38;;;;;;;2.90;0.90;;;4.60;99.90;;;;;;4981005;28;20140;-67
2022/02/21 12:03:15;;;;;;;0.75;0.45;;;4.60;99.90;;;;;;4982563;28;20056;-66
2022/02/21 12:05:43;;;;;;;4.13;1.02;;;4.50;99.90;;;;;;4982323;28;20058;-68
2022/02/21 12:08:29;;;;;;;0.40;0.30;;;4.50;99.90;;;;;;4981369;28;20066;-71
2022/02/21 12:11:03;;;;;;;2.63;0.47;;;4.50;99.90;;;;;;4983451;28;20832;-65
2022/02/21 12:13:56;;;;;;;0.80;0.47;;;4.40;99.90;;;;;;4980477;28;20046;-67
2022/02/21 12:16:24;;;;;;;3.58;0.70;;;4.40;99.90;;;;;;4983189;28;20043;-65
2022/02/21 12:18:57;;;;;;;3.30;1.10;;;4.30;99.90;;;;;;4982321;28;20078;-66
2022/02/21 12:21:28;;;;;;;5.93;0.45;;;4.30;99.90;;;;;;4981713;28;20125;-65
2022/02/21 12:23:56;;;;;;;4.57;0.52;;;4.30;99.90;;;;;;4980898;28;20082;-67
2022/02/21 12:26:23;;;;;;;0.98;0.50;;;4.30;99.90;;;;;;4983651;28;20069;-68
2022/02/21 12:29:17;;;;;;;1.73;0.43;;;4.20;99.90;;;;;;4982314;28;20137;-66
2022/02/21 12:32:01;;;;;;;1.15;0.50;;;4.20;99.90;;;;;;5001153;28;20046;-66
2022/02/21 12:34:39;;;;;;;1.73;0.30;;;4.10;99.90;;;;;;5000710;28;20050;-65
2022/02/21 12:37:11;;;;;;;2.92;0.65;;;4.10;99.90;;;;;;5003661;28;20105;-66
2022/02/21 12:39:43;;;;;;;2.30;0.40;;;4.10;99.90;;;;;;5000693;28;20041;-65
2022/02/21 12:42:10;;;;;;;4.95;2.03;;;4.10;99.90;;;;;;5003151;28;20500;-69
2022/02/21 12:44:37;;;;;;;4.70;0.60;;;4.00;99.90;;;;;;5002474;28;20152;-66
2022/02/21 12:47:05;;;;;;;1.13;0.77;;;4.00;99.90;;;;;;5003633;28;20482;-66
2022/02/21 12:49:35;;;;;;;4.80;2.40;;;4.00;99.90;;;;;;4999391;28;20433;-68
2022/02/21 12:52:06;;;;;;;1.50;0.47;;;3.90;99.90;;;;;;5003453;28;20686;-65
2022/02/21 12:54:49;;;;;;;1.70;0.30;;;3.90;99.90;;;;;;5000402;28;20416;-65
2022/02/21 12:57:18;;;;;;;1.52;0.22;;;3.90;99.90;;;;;;5002354;28;20103;-67
2022/02/21 12:59:47;;;;;;;3.55;0.73;;;3.80;99.90;;;;;;5002514;28;20054;-66
2022/02/21 13:02:15;;;;;;;0.85;0.30;;;3.80;99.90;;;;;;5001528;28;20088;-64
2022/02/21 13:04:42;;;;;;;2.80;1.00;;;3.80;99.90;;;;;;5000570;28;20127;-66